createdAt,value
2019-01-02T00:00:13.007Z,3.53
2019-01-02T00:05:23.651Z,4.00
2019-01-02T00:10:32.563Z,3.77
2019-01-02T00:15:40.535Z,3.87
2019-01-02T00:20:51.366Z,2.83
2019-01-02T00:26:04.011Z,3.40
2019-01-02T00:31:14.928Z,4.10
2019-01-02T00:36:25.765Z,5.33
2019-01-02T00:41:36.765Z,4.10
2019-01-02T00:46:43.075Z,3.60
2019-01-02T00:51:50.664Z,4.07
2019-01-02T00:57:01.957Z,3.70
2019-01-02T01:02:13.807Z,4.37
2019-01-02T01:07:21.824Z,4.07
2019-01-02T01:12:30.035Z,3.57
2019-01-02T01:17:39.116Z,4.47
2019-01-02T01:22:46.526Z,4.00
2019-01-02T01:27:57.800Z,4.07
2019-01-02T01:33:10.466Z,5.00
2019-01-02T01:38:20.389Z,4.23
2019-01-02T01:43:28.295Z,3.50
2019-01-02T01:48:37.047Z,3.47
2019-01-02T01:53:50.667Z,4.60
2019-01-02T01:58:58.738Z,3.87
2019-01-02T02:04:10.542Z,4.57
2019-01-02T02:09:17.477Z,4.10
2019-01-02T02:14:27.070Z,3.85
2019-01-02T02:19:36.519Z,3.50
2019-01-02T02:24:47.042Z,4.10
2019-01-02T02:30:00.268Z,4.43
2019-01-02T02:35:11.587Z,4.10
2019-01-02T02:40:25.963Z,4.90
2019-01-02T02:45:35.909Z,4.80
2019-01-02T02:50:45.769Z,4.28
2019-01-02T02:55:54.967Z,3.70
2019-01-02T03:01:06.595Z,4.37
2019-01-02T03:06:15.735Z,4.28
2019-01-02T03:11:28.910Z,3.70
2019-01-02T03:16:39.207Z,5.17
2019-01-02T03:21:57.817Z,3.43
2019-01-02T03:27:05.437Z,4.50
2019-01-02T03:32:17.171Z,3.03
2019-01-02T03:37:29.097Z,4.00
2019-01-02T03:42:38.222Z,4.50
2019-01-02T03:47:48.256Z,4.00
2019-01-02T03:52:57.337Z,4.23
2019-01-02T03:58:11.174Z,4.23
2019-01-02T04:03:26.627Z,4.35
2019-01-02T04:08:36.809Z,3.30
2019-01-02T04:13:49.616Z,4.57
2019-01-02T04:18:58.721Z,3.50
2019-01-02T04:24:08.463Z,3.40
2019-01-02T04:29:18.574Z,2.87
2019-01-02T04:34:29.705Z,2.50
2019-01-02T04:39:40.531Z,2.13
2019-01-02T04:44:49.560Z,2.77
2019-01-02T04:50:03.178Z,2.07
2019-01-02T04:55:14.440Z,2.13
2019-01-02T05:00:26.824Z,2.20
2019-01-02T05:05:36.687Z,2.70
2019-01-02T05:10:47.780Z,2.77
2019-01-02T05:16:01.386Z,3.60
2019-01-02T05:21:11.608Z,4.63
2019-01-02T05:26:19.713Z,3.40
2019-01-02T05:31:28.501Z,3.50
2019-01-02T05:36:38.616Z,3.50
2019-01-02T05:41:47.883Z,3.37
2019-01-02T05:46:54.901Z,4.03
2019-01-02T05:53:26.450Z,3.00
2019-01-02T05:58:39.887Z,3.73
2019-01-02T06:03:53.543Z,2.90
2019-01-02T06:09:03.600Z,3.33
2019-01-02T06:14:13.944Z,3.27
2019-01-02T06:19:26.850Z,2.90
2019-01-02T06:24:39.429Z,2.80
2019-01-02T06:29:48.429Z,2.70
2019-01-02T06:34:59.146Z,3.03
2019-01-02T06:40:09.542Z,2.27
2019-01-02T06:45:19.768Z,1.83
2019-01-02T06:50:35.843Z,2.17
2019-01-02T06:55:45.668Z,2.07
2019-01-02T07:01:01.017Z,2.23
2019-01-02T07:06:11.499Z,1.93
2019-01-02T07:11:24.997Z,2.27
2019-01-02T07:16:35.869Z,3.00
2019-01-02T07:21:44.769Z,2.23
2019-01-02T07:26:51.952Z,2.57
2019-01-02T07:31:58.841Z,2.60
2019-01-02T07:37:49.739Z,1.87
2019-01-02T07:43:44.622Z,2.43
2019-01-02T07:49:44.921Z,2.63
2019-01-02T07:55:30.309Z,2.47
2019-01-02T08:01:16.131Z,3.00
2019-01-02T08:06:46.862Z,3.10
2019-01-02T08:12:26.634Z,2.27
2019-01-02T08:18:05.700Z,2.40
2019-01-02T08:24:01.003Z,3.33
2019-01-02T08:29:46.093Z,2.43
2019-01-02T08:36:03.333Z,2.60
2019-01-02T08:41:46.371Z,2.30
2019-01-02T08:47:12.864Z,2.53
2019-01-02T08:53:07.423Z,3.30
2019-01-02T08:59:06.089Z,2.73
2019-01-02T09:04:36.870Z,3.10
2019-01-02T09:10:33.957Z,3.05
2019-01-02T09:16:18.920Z,3.57
2019-01-02T09:21:56.095Z,3.27
2019-01-02T09:27:34.979Z,3.73
2019-01-02T09:33:21.797Z,2.70
2019-01-02T09:39:07.281Z,3.03
2019-01-02T09:44:41.572Z,3.25
2019-01-02T09:50:27.948Z,3.13
2019-01-02T09:55:52.233Z,2.90
2019-01-02T10:01:36.644Z,3.57
2019-01-02T10:07:21.636Z,3.50
2019-01-02T10:13:03.942Z,4.00
2019-01-02T10:18:50.520Z,3.63
2019-01-02T10:24:44.977Z,3.83
2019-01-02T10:30:29.583Z,3.30
2019-01-02T10:36:16.230Z,4.23
2019-01-02T10:41:52.909Z,4.33
2019-01-02T10:47:42.114Z,4.07
2019-01-02T10:53:12.704Z,3.80
2019-01-02T10:58:57.514Z,4.33
2019-01-02T11:04:54.369Z,4.20
2019-01-02T11:10:38.502Z,4.27
2019-01-02T11:16:11.268Z,3.63
2019-01-02T11:21:49.189Z,4.00
2019-01-02T11:27:38.344Z,3.90
2019-01-02T11:33:39.557Z,3.80
2019-01-02T11:39:18.785Z,3.25
2019-01-02T11:45:10.883Z,4.17
2019-01-02T11:50:18.333Z,3.87
2019-01-02T11:55:29.156Z,3.42
2019-01-02T12:00:38.152Z,3.87
2019-01-02T12:05:48.044Z,4.13
2019-01-02T12:10:53.832Z,3.60
2019-01-02T12:16:09.065Z,3.43
2019-01-02T12:21:20.711Z,3.33
2019-01-02T12:26:30.782Z,4.20
2019-01-02T12:31:44.291Z,4.23
2019-01-02T12:36:54.286Z,3.97
2019-01-02T12:42:01.576Z,4.27
2019-01-02T12:47:12.293Z,3.43
2019-01-02T12:52:22.191Z,3.60
2019-01-02T12:57:31.347Z,3.17
2019-01-02T13:03:11.721Z,4.33
2019-01-02T13:09:05.511Z,3.80
2019-01-02T13:14:37.927Z,3.47
2019-01-02T13:20:15.718Z,6.85
2019-01-02T13:25:58.821Z,3.97
2019-01-02T13:31:37.283Z,3.20
2019-01-02T13:36:58.866Z,4.60
2019-01-02T13:42:47.834Z,3.80
2019-01-02T13:48:21.527Z,3.33
2019-01-02T13:53:33.347Z,3.40
2019-01-02T13:58:48.361Z,3.75
2019-01-02T14:04:02.429Z,3.22
2019-01-02T14:09:14.125Z,3.98
2019-01-02T14:14:25.970Z,3.47
2019-01-02T14:19:35.819Z,3.60
2019-01-02T14:24:48.516Z,3.97
2019-01-02T14:29:58.519Z,3.60
2019-01-02T14:35:08.761Z,3.93
2019-01-02T14:40:23.124Z,4.20
2019-01-02T14:45:35.718Z,3.47
2019-01-02T14:50:49.349Z,3.70
2019-01-02T14:55:59.207Z,3.33
2019-01-02T15:01:11.877Z,3.50
2019-01-02T15:06:21.805Z,4.15
2019-01-02T15:11:34.443Z,3.83
2019-01-02T15:16:46.148Z,3.27
2019-01-02T15:21:54.250Z,2.90
2019-01-02T15:27:04.308Z,4.23
2019-01-02T15:32:18.787Z,3.00
2019-01-02T15:37:31.845Z,2.73
2019-01-02T15:42:39.260Z,3.20
2019-01-02T15:47:47.748Z,2.97
2019-01-02T15:52:57.663Z,3.83
2019-01-02T15:58:09.443Z,3.23
2019-01-02T16:03:22.207Z,3.00
2019-01-02T16:08:36.108Z,2.73
2019-01-02T16:13:47.846Z,3.90
2019-01-02T16:19:01.291Z,4.17
2019-01-02T16:24:08.714Z,3.57
2019-01-02T16:29:15.113Z,3.83
2019-01-02T16:34:24.172Z,3.93
2019-01-02T16:39:37.564Z,4.37
2019-01-02T16:44:49.421Z,3.43
2019-01-02T16:50:02.381Z,4.40
2019-01-02T16:55:19.623Z,4.00
2019-01-02T17:00:31.176Z,3.83
2019-01-02T17:05:44.689Z,4.07
2019-01-02T17:10:55.559Z,4.60
2019-01-02T17:16:08.144Z,4.13
2019-01-02T17:21:18.355Z,4.60
2019-01-02T17:26:31.143Z,4.03
2019-01-02T17:31:44.211Z,4.73
2019-01-02T17:36:55.015Z,4.57
2019-01-02T17:42:07.719Z,4.57
2019-01-02T17:47:17.742Z,4.13
2019-01-02T17:52:30.328Z,4.60
2019-01-02T17:57:42.051Z,3.90
2019-01-02T18:02:53.749Z,4.30
2019-01-02T18:08:01.995Z,5.30
2019-01-02T18:13:13.411Z,5.70
2019-01-02T18:18:25.923Z,5.13
2019-01-02T18:23:36.710Z,3.80
2019-01-02T18:28:46.051Z,4.30
2019-01-02T18:34:17.030Z,4.13
2019-01-02T18:39:34.425Z,4.63
2019-01-02T18:44:48.434Z,4.70
2019-01-02T18:49:57.312Z,3.53
2019-01-02T18:55:07.332Z,3.70
2019-01-02T19:00:35.508Z,3.47
2019-01-02T19:05:46.311Z,3.57
2019-01-02T19:11:02.114Z,4.67
2019-01-02T19:16:11.629Z,3.97
2019-01-02T19:21:19.869Z,4.97
2019-01-02T19:26:33.283Z,4.20
2019-01-02T19:31:41.079Z,4.13
2019-01-02T19:36:52.386Z,3.20
2019-01-02T19:42:01.454Z,3.73
2019-01-02T19:47:12.166Z,3.63
2019-01-02T19:52:23.285Z,3.90
2019-01-02T19:57:37.931Z,2.80
2019-01-02T20:02:46.882Z,3.20
2019-01-02T20:07:58.097Z,3.67
2019-01-02T20:13:12.004Z,3.63
2019-01-02T20:18:23.718Z,3.30
2019-01-02T20:23:34.626Z,4.10
2019-01-02T20:28:44.511Z,3.90
2019-01-02T20:33:54.612Z,4.27
2019-01-02T20:39:07.106Z,3.33
2019-01-02T20:44:17.028Z,3.00
2019-01-02T20:49:30.501Z,3.43
2019-01-02T20:54:42.950Z,2.80
2019-01-02T20:59:56.702Z,3.30
2019-01-02T21:05:07.014Z,3.37
2019-01-02T21:10:19.634Z,3.43
2019-01-02T21:15:30.526Z,2.93
2019-01-02T21:20:41.415Z,2.47
2019-01-02T21:25:55.773Z,3.67
2019-01-02T21:31:04.871Z,3.70
2019-01-02T21:36:15.682Z,3.03
2019-01-02T21:41:28.354Z,2.97
2019-01-02T21:46:38.418Z,2.97
2019-01-02T21:51:47.183Z,2.37
2019-01-02T21:56:56.988Z,2.93
2019-01-02T22:02:11.533Z,2.50
2019-01-02T22:07:24.325Z,2.70
2019-01-02T22:12:34.210Z,2.73
2019-01-02T22:17:43.146Z,2.13
2019-01-02T22:22:52.043Z,2.77
2019-01-02T22:28:05.415Z,2.83
2019-01-02T22:33:14.948Z,3.50
2019-01-02T22:38:21.613Z,2.77
2019-01-02T22:43:35.651Z,3.23
2019-01-02T22:48:50.732Z,3.50
2019-01-02T22:54:03.362Z,2.40
2019-01-02T22:59:13.964Z,2.70
2019-01-02T23:04:48.226Z,3.70
2019-01-02T23:10:13.443Z,2.60
2019-01-02T23:15:43.324Z,2.93
2019-01-02T23:21:10.665Z,3.13
2019-01-02T23:26:35.406Z,3.27
2019-01-02T23:32:02.413Z,3.17
2019-01-02T23:37:32.646Z,2.63
2019-01-02T23:43:02.047Z,2.73
2019-01-02T23:48:27.207Z,3.23
2019-01-02T23:53:55.219Z,3.77
2019-01-02T23:59:30.976Z,2.73
